Time,TemperatureF,DewpointF,PressureIn,WindDirection,WindDirectionDegrees,WindSpeedMPH,WindSpeedGustMPH,Humidity,HourlyPrecipIn,Conditions,Clouds,dailyrainin,SolarRadiationWatts/m^2,SoftwareType,DateUTC
2013-03-21 00:02:00,-2.0,-13.0,-100.00,NW,311,3.0,5.0,57,0.00,,,0.00,0.000000,,2013-03-21 08:02:00,
2013-03-21 00:12:00,-2.0,-13.0,-100.00,NW,311,3.0,5.0,57,0.00,,,0.00,0.000000,,2013-03-21 08:12:00,
2013-03-21 00:22:00,-2.0,-13.0,-100.00,NW,311,3.0,5.0,57,0.00,,,0.00,0.000000,,2013-03-21 08:22:00,
2013-03-21 00:32:00,-2.0,-13.0,-100.00,NW,311,3.0,5.0,57,0.00,,,0.00,0.000000,,2013-03-21 08:32:00,
2013-03-21 00:33:00,-3.0,-14.0,-100.00,NNW,342,1.0,3.0,57,0.00,,,0.00,0.000000,,2013-03-21 08:33:00,
2013-03-21 00:52:00,-3.0,-14.0,-100.00,NNW,342,1.0,3.0,57,0.00,,,0.00,0.000000,,2013-03-21 08:52:00,
2013-03-21 01:02:00,-3.0,-14.0,-100.00,NNW,342,1.0,3.0,57,0.00,,,0.00,0.000000,,2013-03-21 09:02:00,
2013-03-21 01:11:00,-3.0,-14.0,-100.00,NNW,342,1.0,3.0,57,0.00,,,0.00,0.000000,,2013-03-21 09:11:00,
2013-03-21 01:21:00,-3.0,-14.0,-100.00,NNW,342,1.0,3.0,57,0.00,,,0.00,0.000000,,2013-03-21 09:21:00,
2013-03-21 01:53:00,-3.0,-13.0,-100.00,WNW,284,1.0,2.0,60,0.00,,,0.00,0.000000,,2013-03-21 09:53:00,
2013-03-21 02:02:00,-3.0,-13.0,-100.00,WNW,284,1.0,2.0,60,0.00,,,0.00,0.000000,,2013-03-21 10:02:00,
2013-03-21 02:12:00,-3.0,-13.0,-100.00,WNW,284,1.0,2.0,60,0.00,,,0.00,0.000000,,2013-03-21 10:12:00,
2013-03-21 02:22:00,-3.0,-13.0,-100.00,WNW,284,1.0,2.0,60,0.00,,,0.00,0.000000,,2013-03-21 10:22:00,
2013-03-21 02:32:00,-3.0,-13.0,-100.00,WNW,284,1.0,2.0,60,0.00,,,0.00,0.000000,,2013-03-21 10:32:00,
2013-03-21 02:53:00,-4.0,-14.0,-100.00,NW,322,3.0,5.0,60,0.00,,,0.00,0.000000,,2013-03-21 10:53:00,
2013-03-21 03:02:00,-4.0,-14.0,-100.00,NW,322,3.0,5.0,60,0.00,,,0.00,0.000000,,2013-03-21 11:02:00,
2013-03-21 03:12:00,-4.0,-14.0,-100.00,NW,322,3.0,5.0,60,0.00,,,0.00,0.000000,,2013-03-21 11:12:00,
2013-03-21 03:22:00,-4.0,-14.0,-100.00,NW,322,3.0,5.0,60,0.00,,,0.00,0.000000,,2013-03-21 11:22:00,
2013-03-21 03:32:00,-4.0,-14.0,-100.00,NW,322,3.0,5.0,60,0.00,,,0.00,0.000000,,2013-03-21 11:32:00,
2013-03-21 03:53:00,-4.0,-14.0,-100.00,WNW,288,2.0,4.0,60,0.00,,,0.00,0.000000,,2013-03-21 11:53:00,
2013-03-21 04:02:00,-4.0,-14.0,-100.00,WNW,288,2.0,4.0,60,0.00,,,0.00,0.000000,,2013-03-21 12:02:00,
2013-03-21 04:12:00,-4.0,-14.0,-100.00,WNW,288,2.0,4.0,60,0.00,,,0.00,0.000000,,2013-03-21 12:12:00,
2013-03-21 04:22:00,-4.0,-14.0,-100.00,WNW,288,2.0,4.0,60,0.00,,,0.00,0.000000,,2013-03-21 12:22:00,
2013-03-21 04:32:00,-4.0,-14.0,-100.00,WNW,288,2.0,4.0,60,0.00,,,0.00,0.000000,,2013-03-21 12:32:00,
2013-03-21 04:53:00,-5.0,-15.0,-100.00,WNW,302,1.0,3.0,61,0.00,,,0.00,0.000000,,2013-03-21 12:53:00,
2013-03-21 05:02:00,-5.0,-15.0,-100.00,WNW,302,1.0,3.0,61,0.00,,,0.00,0.000000,,2013-03-21 13:02:00,
2013-03-21 05:12:00,-5.0,-15.0,-100.00,WNW,302,1.0,3.0,61,0.00,,,0.00,0.000000,,2013-03-21 13:12:00,
2013-03-21 05:22:00,-5.0,-15.0,-100.00,WNW,302,1.0,3.0,61,0.00,,,0.00,0.000000,,2013-03-21 13:22:00,
2013-03-21 05:32:00,-5.0,-15.0,-100.00,WNW,302,1.0,3.0,61,0.00,,,0.00,0.000000,,2013-03-21 13:32:00,
2013-03-21 05:52:00,-5.0,-15.0,-100.00,WNW,289,3.0,4.0,62,0.00,,,0.00,0.000000,,2013-03-21 13:52:00,
2013-03-21 06:02:00,-5.0,-15.0,-100.00,WNW,289,3.0,4.0,62,0.00,,,0.00,0.000000,,2013-03-21 14:02:00,
2013-03-21 06:12:00,-5.0,-15.0,-100.00,WNW,289,3.0,4.0,62,0.00,,,0.00,0.000000,,2013-03-21 14:12:00,
2013-03-21 06:21:00,-5.0,-15.0,-100.00,WNW,289,3.0,4.0,62,0.00,,,0.00,0.000000,,2013-03-21 14:21:00,
2013-03-21 06:32:00,-5.0,-15.0,-100.00,WNW,289,3.0,4.0,62,0.00,,,0.00,0.000000,,2013-03-21 14:32:00,
2013-03-21 06:52:00,-5.0,-14.0,-100.00,West,280,1.0,2.0,63,0.00,,,0.00,0.000000,,2013-03-21 14:52:00,
2013-03-21 07:03:00,-5.0,-14.0,-100.00,West,280,1.0,2.0,63,0.00,,,0.00,0.000000,,2013-03-21 15:03:00,
2013-03-21 07:12:00,-5.0,-14.0,-100.00,West,280,1.0,2.0,63,0.00,,,0.00,0.000000,,2013-03-21 15:12:00,
2013-03-21 07:22:00,-5.0,-14.0,-100.00,West,280,1.0,2.0,63,0.00,,,0.00,0.000000,,2013-03-21 15:22:00,
2013-03-21 07:32:00,-5.0,-14.0,-100.00,West,280,1.0,2.0,63,0.00,,,0.00,0.000000,,2013-03-21 15:32:00,
2013-03-21 07:53:00,-5.0,-14.0,-100.00,WSW,254,1.0,2.0,64,0.00,,,0.00,0.000000,,2013-03-21 15:53:00,
2013-03-21 08:03:00,-5.0,-14.0,-100.00,WSW,254,1.0,2.0,64,0.00,,,0.00,0.000000,,2013-03-21 16:03:00,
2013-03-21 08:12:00,-5.0,-14.0,-100.00,WSW,254,1.0,2.0,64,0.00,,,0.00,0.000000,,2013-03-21 16:12:00,
2013-03-21 08:32:00,-5.0,-14.0,-100.00,WSW,254,1.0,2.0,64,0.00,,,0.00,0.000000,,2013-03-21 16:32:00,
2013-03-21 08:53:00,-6.0,-15.0,-100.00,NW,306,3.0,5.0,65,0.00,,,0.00,15.000000,,2013-03-21 16:53:00,
2013-03-21 09:02:00,-6.0,-15.0,-100.00,NW,306,3.0,5.0,65,0.00,,,0.00,15.000000,,2013-03-21 17:02:00,
2013-03-21 09:12:00,-6.0,-15.0,-100.00,NW,306,3.0,5.0,65,0.00,,,0.00,15.000000,,2013-03-21 17:12:00,
2013-03-21 09:22:00,-6.0,-15.0,-100.00,NW,306,3.0,5.0,65,0.00,,,0.00,15.000000,,2013-03-21 17:22:00,
2013-03-21 09:32:00,-6.0,-15.0,-100.00,NW,306,3.0,5.0,65,0.00,,,0.00,15.000000,,2013-03-21 17:32:00,
2013-03-21 09:53:00,-5.0,-15.0,-100.00,WNW,301,2.0,3.0,62,0.00,,,0.00,212.000000,,2013-03-21 17:53:00,
2013-03-21 10:02:00,-5.0,-15.0,-100.00,WNW,301,2.0,3.0,62,0.00,,,0.00,212.000000,,2013-03-21 18:02:00,
2013-03-21 10:12:00,-5.0,-15.0,-100.00,WNW,301,2.0,3.0,62,0.00,,,0.00,212.000000,,2013-03-21 18:12:00,
2013-03-21 10:22:00,-5.0,-15.0,-100.00,WNW,301,2.0,3.0,62,0.00,,,0.00,212.000000,,2013-03-21 18:22:00,
2013-03-21 10:32:00,-5.0,-15.0,-100.00,WNW,301,2.0,3.0,62,0.00,,,0.00,212.000000,,2013-03-21 18:32:00,
2013-03-21 10:52:00,-2.0,-14.0,-100.00,WNW,283,1.0,5.0,56,0.00,,,0.00,332.000000,,2013-03-21 18:52:00,
2013-03-21 11:02:00,-2.0,-14.0,-100.00,WNW,283,1.0,5.0,56,0.00,,,0.00,332.000000,,2013-03-21 19:02:00,
2013-03-21 11:12:00,-2.0,-14.0,-100.00,WNW,283,1.0,5.0,56,0.00,,,0.00,332.000000,,2013-03-21 19:12:00,
2013-03-21 11:22:00,-2.0,-14.0,-100.00,WNW,283,1.0,5.0,56,0.00,,,0.00,332.000000,,2013-03-21 19:22:00,
2013-03-21 11:31:00,-2.0,-14.0,-100.00,WNW,283,1.0,5.0,56,0.00,,,0.00,332.000000,,2013-03-21 19:31:00,
2013-03-21 11:53:00,-1.0,-13.0,-100.00,NNE,16,2.0,6.0,55,0.00,,,0.00,429.000000,,2013-03-21 19:53:00,
2013-03-21 12:02:00,-1.0,-13.0,-100.00,NNE,16,2.0,6.0,55,0.00,,,0.00,429.000000,,2013-03-21 20:02:00,
2013-03-21 12:12:00,-1.0,-13.0,-100.00,NNE,16,2.0,6.0,55,0.00,,,0.00,429.000000,,2013-03-21 20:12:00,
2013-03-21 12:22:00,-1.0,-13.0,-100.00,NNE,16,2.0,6.0,55,0.00,,,0.00,429.000000,,2013-03-21 20:22:00,
2013-03-21 12:32:00,-1.0,-13.0,-100.00,NNE,16,2.0,6.0,55,0.00,,,0.00,429.000000,,2013-03-21 20:32:00,
2013-03-21 12:53:00,-2.0,-13.0,-100.00,NW,318,3.0,7.0,57,0.00,,,0.00,492.000000,,2013-03-21 20:53:00,
2013-03-21 13:02:00,-2.0,-13.0,-100.00,NW,318,3.0,7.0,57,0.00,,,0.00,492.000000,,2013-03-21 21:02:00,
2013-03-21 13:12:00,-2.0,-13.0,-100.00,NW,318,3.0,7.0,57,0.00,,,0.00,492.000000,,2013-03-21 21:12:00,
2013-03-21 13:22:00,-2.0,-13.0,-100.00,NW,318,3.0,7.0,57,0.00,,,0.00,492.000000,,2013-03-21 21:22:00,
2013-03-21 13:32:00,-2.0,-13.0,-100.00,NW,318,3.0,7.0,57,0.00,,,0.00,492.000000,,2013-03-21 21:32:00,
2013-03-21 13:33:00,0.0,-11.0,-100.00,North,11,3.0,7.0,58,0.00,,,0.00,519.000000,,2013-03-21 21:33:00,
2013-03-21 13:53:00,0.0,-11.0,-100.00,North,11,3.0,7.0,58,0.00,,,0.00,519.000000,,2013-03-21 21:53:00,
2013-03-21 14:02:00,0.0,-11.0,-100.00,North,11,3.0,7.0,58,0.00,,,0.00,519.000000,,2013-03-21 22:02:00,
2013-03-21 14:12:00,0.0,-11.0,-100.00,North,11,3.0,7.0,58,0.00,,,0.00,519.000000,,2013-03-21 22:12:00,
2013-03-21 14:23:00,0.0,-11.0,-100.00,North,11,3.0,7.0,58,0.00,,,0.00,519.000000,,2013-03-21 22:23:00,
2013-03-21 14:52:00,0.0,-11.0,-100.00,WNW,303,2.0,5.0,58,0.00,,,0.00,506.000000,,2013-03-21 22:52:00,
2013-03-21 15:02:00,0.0,-11.0,-100.00,WNW,303,2.0,5.0,58,0.00,,,0.00,506.000000,,2013-03-21 23:02:00,
2013-03-21 15:12:00,0.0,-11.0,-100.00,WNW,303,2.0,5.0,58,0.00,,,0.00,506.000000,,2013-03-21 23:12:00,
2013-03-21 15:21:00,0.0,-11.0,-100.00,WNW,303,2.0,5.0,58,0.00,,,0.00,506.000000,,2013-03-21 23:21:00,
2013-03-21 15:32:00,0.0,-11.0,-100.00,WNW,303,2.0,5.0,58,0.00,,,0.00,506.000000,,2013-03-21 23:32:00,
2013-03-21 15:53:00,0.0,-11.0,-100.00,West,270,2.0,6.0,60,0.00,,,0.00,451.000000,,2013-03-21 23:53:00,
2013-03-21 16:02:00,0.0,-11.0,-100.00,West,270,2.0,6.0,60,0.00,,,0.00,451.000000,,2013-03-22 00:02:00,
2013-03-21 16:12:00,0.0,-11.0,-100.00,West,270,2.0,6.0,60,0.00,,,0.00,451.000000,,2013-03-22 00:12:00,
2013-03-21 16:22:00,0.0,-11.0,-100.00,West,270,2.0,6.0,60,0.00,,,0.00,451.000000,,2013-03-22 00:22:00,
2013-03-21 16:31:00,0.0,-11.0,-100.00,West,270,2.0,6.0,60,0.00,,,0.00,451.000000,,2013-03-22 00:31:00,
2013-03-21 16:52:00,1.0,-9.0,-100.00,NW,308,3.0,6.0,61,0.00,,,0.00,363.000000,,2013-03-22 00:52:00,
2013-03-21 17:02:00,1.0,-9.0,-100.00,NW,308,3.0,6.0,61,0.00,,,0.00,363.000000,,2013-03-22 01:02:00,
2013-03-21 17:12:00,1.0,-9.0,-100.00,NW,308,3.0,6.0,61,0.00,,,0.00,363.000000,,2013-03-22 01:12:00,
2013-03-21 17:22:00,1.0,-9.0,-100.00,NW,308,3.0,6.0,61,0.00,,,0.00,363.000000,,2013-03-22 01:22:00,
2013-03-21 17:32:00,1.0,-9.0,-100.00,NW,308,3.0,6.0,61,0.00,,,0.00,363.000000,,2013-03-22 01:32:00,
2013-03-21 17:53:00,2.0,-9.0,-100.00,West,279,3.0,5.0,59,0.00,,,0.00,233.000000,,2013-03-22 01:53:00,
2013-03-21 18:02:00,2.0,-9.0,-100.00,West,279,3.0,5.0,59,0.00,,,0.00,233.000000,,2013-03-22 02:02:00,
2013-03-21 18:12:00,2.0,-9.0,-100.00,West,279,3.0,5.0,59,0.00,,,0.00,233.000000,,2013-03-22 02:12:00,
2013-03-21 18:22:00,2.0,-9.0,-100.00,West,279,3.0,5.0,59,0.00,,,0.00,233.000000,,2013-03-22 02:22:00,
2013-03-21 18:32:00,2.0,-9.0,-100.00,West,279,3.0,5.0,59,0.00,,,0.00,233.000000,,2013-03-22 02:32:00,
2013-03-21 18:52:00,2.0,-9.0,-100.00,NW,306,3.0,5.0,59,0.00,,,0.00,133.000000,,2013-03-22 02:52:00,
2013-03-21 19:02:00,2.0,-9.0,-100.00,NW,306,3.0,5.0,59,0.00,,,0.00,133.000000,,2013-03-22 03:02:00,
2013-03-21 19:12:00,2.0,-9.0,-100.00,NW,306,3.0,5.0,59,0.00,,,0.00,133.000000,,2013-03-22 03:12:00,
2013-03-21 19:21:00,2.0,-9.0,-100.00,NW,306,3.0,5.0,59,0.00,,,0.00,133.000000,,2013-03-22 03:21:00,
2013-03-21 19:32:00,2.0,-9.0,-100.00,NW,306,3.0,5.0,59,0.00,,,0.00,133.000000,,2013-03-22 03:32:00,
2013-03-21 19:53:00,1.0,-10.0,-100.00,NW,307,3.0,6.0,59,0.00,,,0.00,27.000000,,2013-03-22 03:53:00,
2013-03-21 20:03:00,1.0,-10.0,-100.00,NW,307,3.0,6.0,59,0.00,,,0.00,27.000000,,2013-03-22 04:03:00,
2013-03-21 20:12:00,1.0,-10.0,-100.00,NW,307,3.0,6.0,59,0.00,,,0.00,27.000000,,2013-03-22 04:12:00,
2013-03-21 20:22:00,1.0,-10.0,-100.00,NW,307,3.0,6.0,59,0.00,,,0.00,27.000000,,2013-03-22 04:22:00,
2013-03-21 20:32:00,1.0,-10.0,-100.00,NW,307,3.0,6.0,59,0.00,,,0.00,27.000000,,2013-03-22 04:32:00,
2013-03-21 20:52:00,1.0,-12.0,-100.00,NNW,342,3.0,6.0,53,0.00,,,0.00,0.000000,,2013-03-22 04:52:00,
2013-03-21 21:02:00,1.0,-12.0,-100.00,NNW,342,3.0,6.0,53,0.00,,,0.00,0.000000,,2013-03-22 05:02:00,
2013-03-21 21:12:00,1.0,-12.0,-100.00,NNW,342,3.0,6.0,53,0.00,,,0.00,0.000000,,2013-03-22 05:12:00,
2013-03-21 21:22:00,1.0,-12.0,-100.00,NNW,342,3.0,6.0,53,0.00,,,0.00,0.000000,,2013-03-22 05:22:00,
2013-03-21 21:32:00,1.0,-12.0,-100.00,NNW,342,3.0,6.0,53,0.00,,,0.00,0.000000,,2013-03-22 05:32:00,
2013-03-21 21:52:00,1.0,-13.0,-100.00,NNW,330,3.0,6.0,51,0.00,,,0.00,0.000000,,2013-03-22 05:52:00,
2013-03-21 22:02:00,1.0,-13.0,-100.00,NNW,330,3.0,6.0,51,0.00,,,0.00,0.000000,,2013-03-22 06:02:00,
2013-03-21 22:12:00,1.0,-13.0,-100.00,NNW,330,3.0,6.0,51,0.00,,,0.00,0.000000,,2013-03-22 06:12:00,
2013-03-21 22:22:00,1.0,-13.0,-100.00,NNW,330,3.0,6.0,51,0.00,,,0.00,0.000000,,2013-03-22 06:22:00,
2013-03-21 22:32:00,1.0,-13.0,-100.00,NNW,330,3.0,6.0,51,0.00,,,0.00,0.000000,,2013-03-22 06:32:00,
2013-03-21 22:52:00,2.0,-12.0,-100.00,NW,310,2.0,5.0,51,0.00,,,0.00,0.000000,,2013-03-22 06:52:00,
2013-03-21 23:02:00,2.0,-12.0,-100.00,NW,310,2.0,5.0,51,0.00,,,0.00,0.000000,,2013-03-22 07:02:00,
2013-03-21 23:12:00,2.0,-12.0,-100.00,NW,310,2.0,5.0,51,0.00,,,0.00,0.000000,,2013-03-22 07:12:00,
2013-03-21 23:22:00,2.0,-12.0,-100.00,NW,310,2.0,5.0,51,0.00,,,0.00,0.000000,,2013-03-22 07:22:00,
2013-03-21 23:32:00,2.0,-12.0,-100.00,NW,310,2.0,5.0,51,0.00,,,0.00,0.000000,,2013-03-22 07:32:00,
2013-03-21 23:52:00,4.0,-11.0,-100.00,NW,322,3.0,6.0,49,0.00,,,0.00,0.000000,,2013-03-22 07:52:00,